Time;durP1;ratioP1;P1;durP2;ratioP2;P2;SDS_P1;SDS_P2;PMS_P1;PMS_P2;Temp;Humidity;BMP_temperature;BMP_pressure;BME280_temperature;BME280_humidity;BME280_pressure;Samples;Min_cycle;Max_cycle;Signal;HPM_P1;HPM_P2
2022/07/16 00:02:42;;;;;;;8.27;2.90;;;;;;;21.29;49.29;101273.81;5031871;28;20032;-49
2022/07/16 00:05:08;;;;;;;10.40;2.95;;;;;;;21.27;49.94;101270.53;5031841;28;20048;-49
2022/07/16 00:07:34;;;;;;;9.50;2.58;;;;;;;21.06;49.64;101253.28;5032610;28;20394;-48
2022/07/16 00:10:01;;;;;;;8.77;2.60;;;;;;;21.05;49.87;101262.53;5027899;28;20044;-48
2022/07/16 00:12:28;;;;;;;13.48;2.65;;;;;;;20.94;50.91;101260.03;5012648;28;20034;-47
2022/07/16 00:14:54;;;;;;;9.32;3.38;;;;;;;20.79;51.34;101263.50;5013553;28;20061;-46
2022/07/16 00:17:20;;;;;;;12.45;2.85;;;;;;;20.75;51.26;101265.91;5019388;28;20632;-49
2022/07/16 00:19:47;;;;;;;11.85;3.08;;;;;;;20.81;50.91;101267.56;5007099;28;20029;-48
2022/07/16 00:22:13;;;;;;;13.82;2.95;;;;;;;20.94;51.24;101263.56;5027921;28;20022;-49
2022/07/16 00:24:39;;;;;;;9.30;3.58;;;;;;;20.74;51.01;101253.41;5031104;28;20025;-49
2022/07/16 00:27:05;;;;;;;11.98;3.95;;;;;;;20.65;51.74;101256.88;5033136;28;20033;-48
2022/07/16 00:29:32;;;;;;;13.98;3.30;;;;;;;20.55;51.82;101263.91;5033528;28;20770;-49
2022/07/16 00:31:58;;;;;;;15.05;2.67;;;;;;;20.60;51.54;101262.28;5032557;28;20021;-48
2022/07/16 00:34:24;;;;;;;12.00;2.97;;;;;;;20.26;52.22;101259.84;5021017;28;20026;-49
2022/07/16 00:36:51;;;;;;;7.68;3.10;;;;;;;20.12;52.78;101261.38;5028219;28;20370;-49
2022/07/16 00:39:18;;;;;;;11.07;3.05;;;;;;;20.30;52.94;101263.69;5033045;28;20028;-48
2022/07/16 00:41:46;;;;;;;13.90;3.08;;;;;;;20.46;52.66;101264.66;5032670;28;20018;-48
2022/07/16 00:44:16;;;;;;;14.82;2.85;;;;;;;19.89;53.77;101265.25;5018206;28;20104;-46
2022/07/16 00:46:44;;;;;;;11.23;2.85;;;;;;;19.62;55.00;101259.81;5019093;28;20072;-47
2022/07/16 00:49:11;;;;;;;8.43;3.28;;;;;;;19.37;55.06;101257.59;5036112;22;20057;-49
2022/07/16 00:51:43;;;;;;;13.07;3.20;;;;;;;19.47;55.22;101257.72;5027360;28;20032;-45
2022/07/16 00:54:09;;;;;;;12.43;3.10;;;;;;;19.48;55.69;101248.50;5031820;28;20064;-48
2022/07/16 00:56:36;;;;;;;12.40;3.13;;;;;;;19.38;55.53;101245.69;5032918;28;20029;-46
2022/07/16 00:59:02;;;;;;;11.18;3.05;;;;;;;19.28;55.57;101249.09;5032515;28;20025;-47
2022/07/16 01:01:28;;;;;;;14.10;3.53;;;;;;;19.05;56.32;101242.06;5041715;28;20482;-47
2022/07/16 01:03:54;;;;;;;14.73;3.47;;;;;;;19.09;56.28;101236.94;5032680;28;20026;-48
2022/07/16 01:06:22;;;;;;;13.90;3.60;;;;;;;18.83;57.64;101236.63;5045318;28;20028;-49
2022/07/16 01:08:49;;;;;;;11.15;2.85;;;;;;;18.82;56.78;101232.28;5023094;28;20053;-48
2022/07/16 01:11:19;;;;;;;11.77;3.17;;;;;;;18.68;57.24;101229.09;5030907;28;20072;-48
2022/07/16 01:13:50;;;;;;;11.05;4.07;;;;;;;18.57;58.73;101226.47;5032606;28;20092;-49
2022/07/16 01:16:18;;;;;;;10.57;2.97;;;;;;;18.58;58.66;101222.69;5032638;28;20502;-50
2022/07/16 01:18:45;;;;;;;12.88;3.80;;;;;;;18.58;58.68;101234.34;5032328;28;20120;-49
2022/07/16 01:21:14;;;;;;;9.07;3.08;;;;;;;18.65;58.47;101216.00;5032539;28;20060;-47
2022/07/16 01:23:42;;;;;;;11.57;2.92;;;;;;;18.69;58.49;101214.47;5032406;28;20044;-47
2022/07/16 01:26:09;;;;;;;13.10;3.42;;;;;;;18.51;58.99;101211.19;5032194;28;20029;-48
2022/07/16 01:28:35;;;;;;;13.50;3.60;;;;;;;18.45;58.76;101203.00;5032334;28;20029;-48
2022/07/16 01:31:01;;;;;;;11.27;3.38;;;;;;;18.46;59.12;101203.81;5032568;28;20021;-48
2022/07/16 01:33:35;;;;;;;15.52;3.67;;;;;;;18.46;59.25;101209.22;5031224;28;20022;-48
2022/07/16 01:36:13;;;;;;;21.55;3.80;;;;;;;18.47;59.06;101208.97;5032280;28;20442;-48
2022/07/16 01:38:44;;;;;;;15.05;3.55;;;;;;;18.48;59.16;101201.66;5031937;28;20175;-47
2022/07/16 01:41:12;;;;;;;22.17;3.75;;;;;;;18.48;59.41;101210.59;5031589;28;20057;-48
2022/07/16 01:43:38;;;;;;;11.02;2.90;;;;;;;18.29;58.95;101203.84;5029666;28;20057;-46
2022/07/16 01:46:05;;;;;;;12.60;3.00;;;;;;;18.28;59.06;101213.03;5015730;28;20022;-46
2022/07/16 01:48:34;;;;;;;11.02;3.38;;;;;;;18.37;59.54;101218.84;5039608;28;20041;-49
2022/07/16 01:51:00;;;;;;;13.27;3.75;;;;;;;18.13;59.67;101205.50;5014245;28;20028;-48
2022/07/16 01:53:28;;;;;;;11.35;3.22;;;;;;;18.25;59.58;101212.69;5031843;28;20108;-48
2022/07/16 01:55:54;;;;;;;10.93;3.33;;;;;;;18.04;60.18;101209.66;5028478;28;20040;-45
2022/07/16 01:58:21;;;;;;;11.13;2.85;;;;;;;18.13;60.70;101212.78;5030887;28;20030;-48
2022/07/16 02:00:47;;;;;;;16.52;4.35;;;;;;;18.36;59.29;101206.38;5031715;28;20028;-48
2022/07/16 02:03:14;;;;;;;15.15;3.47;;;;;;;18.45;59.06;101207.59;5029301;28;20053;-48
2022/07/16 02:05:42;;;;;;;11.85;3.08;;;;;;;18.57;58.72;101194.75;5030040;28;20030;-46
2022/07/16 02:08:09;;;;;;;12.48;3.30;;;;;;;18.55;58.33;101204.22;5023871;28;20121;-45
2022/07/16 02:10:36;;;;;;;9.00;3.10;;;;;;;18.56;58.01;101203.13;5021874;28;20092;-46
2022/07/16 02:13:03;;;;;;;8.95;3.28;;;;;;;18.83;57.73;101195.13;5036905;28;20331;-44
2022/07/16 02:15:29;;;;;;;11.73;3.05;;;;;;;19.09;56.87;101199.75;5039281;28;20017;-47
2022/07/16 02:17:56;;;;;;;16.00;3.40;;;;;;;19.17;56.81;101202.03;5018887;28;20270;-48
2022/07/16 02:20:22;;;;;;;10.02;2.53;;;;;;;19.40;56.05;101200.09;5028113;28;20382;-48
2022/07/16 02:22:48;;;;;;;13.07;3.25;;;;;;;19.46;55.38;101199.06;5039534;28;20103;-46
2022/07/16 02:25:15;;;;;;;10.98;3.28;;;;;;;19.47;55.90;101195.28;5031883;28;20025;-50
2022/07/16 02:28:05;;;;;;;12.05;3.28;;;;;;;19.43;55.65;101203.13;5031356;28;20029;-47
2022/07/16 02:30:27;;;;;;;13.15;3.22;;;;;;;19.37;55.97;101200.59;5031751;28;20029;-48
2022/07/16 02:32:53;;;;;;;12.20;2.90;;;;;;;19.46;55.55;101199.91;5031362;28;20029;-46
2022/07/16 02:35:20;;;;;;;10.55;3.00;;;;;;;19.48;55.15;101194.19;5031310;28;20090;-46
2022/07/16 02:37:49;;;;;;;11.93;2.85;;;;;;;19.42;55.49;101198.75;5031151;28;20387;-48
2022/07/16 02:40:15;;;;;;;14.23;3.33;;;;;;;19.34;55.96;101198.41;5031650;28;20113;-48
2022/07/16 02:42:42;;;;;;;14.55;2.95;;;;;;;19.04;56.48;101196.97;5031592;28;20018;-49
2022/07/16 02:45:10;;;;;;;11.38;3.47;;;;;;;18.83;57.33;101193.22;5034001;28;20091;-45
2022/07/16 02:47:38;;;;;;;8.80;2.80;;;;;;;18.70;57.76;101207.97;5034562;28;20148;-46
2022/07/16 02:50:05;;;;;;;10.65;3.50;;;;;;;18.54;58.06;101210.69;5037484;28;20057;-47
2022/07/16 02:52:31;;;;;;;14.55;3.15;;;;;;;18.78;57.64;101195.06;5035347;28;20087;-48
2022/07/16 02:54:57;;;;;;;10.02;3.00;;;;;;;18.69;57.91;101203.63;5017891;28;20040;-47
2022/07/16 02:57:24;;;;;;;15.90;3.28;;;;;;;18.60;57.97;101205.09;5035059;28;20026;-47
2022/07/16 02:59:50;;;;;;;16.35;2.85;;;;;;;18.25;58.83;101202.69;5034886;28;20029;-48
2022/07/16 03:02:16;;;;;;;12.90;3.38;;;;;;;18.18;59.26;101208.28;5052547;28;20021;-48
2022/07/16 03:04:42;;;;;;;15.23;3.38;;;;;;;17.89;59.79;101215.69;5038300;28;20112;-48
2022/07/16 03:07:08;;;;;;;16.95;3.67;;;;;;;17.64;60.99;101216.00;5034841;28;20541;-49
2022/07/16 03:09:35;;;;;;;14.20;3.47;;;;;;;17.24;62.22;101221.50;5033867;28;20028;-45
2022/07/16 03:12:01;;;;;;;15.93;3.92;;;;;;;17.14;62.74;101211.28;5030979;28;20032;-48
2022/07/16 03:14:27;;;;;;;11.82;2.95;;;;;;;16.84;64.04;101224.19;5034849;28;20038;-49
2022/07/16 03:16:53;;;;;;;17.40;4.07;;;;;;;16.56;65.06;101220.31;5049298;28;20071;-46
2022/07/16 03:19:19;;;;;;;13.85;3.33;;;;;;;16.48;65.27;101215.25;5054483;28;20021;-45
2022/07/16 03:21:45;;;;;;;15.50;3.45;;;;;;;16.39;65.95;101214.00;5046285;28;20022;-49
2022/07/16 03:24:12;;;;;;;16.98;4.45;;;;;;;16.32;66.54;101206.00;5034530;28;20095;-48
2022/07/16 03:26:38;;;;;;;17.38;3.75;;;;;;;16.12;67.19;101210.13;5026257;28;20029;-49
2022/07/16 03:29:04;;;;;;;16.83;3.92;;;;;;;16.12;67.64;101215.50;5034055;28;20033;-49
2022/07/16 03:31:30;;;;;;;18.33;3.90;;;;;;;16.20;67.17;101207.03;5034300;28;20021;-47
2022/07/16 03:33:57;;;;;;;14.77;3.88;;;;;;;16.02;67.65;101214.19;5034610;28;20112;-46
2022/07/16 03:36:23;;;;;;;11.32;3.45;;;;;;;15.95;68.12;101213.50;5021256;28;20096;-48
2022/07/16 03:39:03;;;;;;;14.10;3.92;;;;;;;15.86;68.52;101204.06;5034200;28;20117;-48
2022/07/16 03:41:31;;;;;;;19.73;4.65;;;;;;;15.69;69.23;101201.22;5033984;28;20386;-48
2022/07/16 03:43:58;;;;;;;12.75;3.80;;;;;;;15.61;69.52;101209.63;5025595;28;20046;-47
2022/07/16 03:46:25;;;;;;;14.98;4.25;;;;;;;15.55;69.74;101205.16;5030125;28;20032;-46
2022/07/16 03:48:51;;;;;;;21.42;4.32;;;;;;;15.42;70.29;101203.44;5032258;28;20057;-49
2022/07/16 03:51:17;;;;;;;18.02;5.03;;;;;;;15.43;70.34;101202.41;5034246;28;20378;-47
2022/07/16 03:53:44;;;;;;;15.50;3.95;;;;;;;15.44;70.71;101217.56;5041537;28;20037;-49
2022/07/16 03:56:10;;;;;;;13.23;4.00;;;;;;;15.42;70.81;101221.53;5033464;28;20029;-47
2022/07/16 03:58:36;;;;;;;15.30;3.63;;;;;;;15.40;70.45;101223.63;5037850;28;20140;-46
2022/07/16 04:01:03;;;;;;;14.75;4.38;;;;;;;15.40;70.53;101220.94;5034105;28;20041;-48
2022/07/16 04:03:29;;;;;;;16.98;3.80;;;;;;;15.44;70.75;101228.34;5035627;28;20017;-49
2022/07/16 04:05:56;;;;;;;20.90;4.57;;;;;;;15.34;70.83;101217.28;5026733;28;20021;-46
2022/07/16 04:08:22;;;;;;;12.93;3.55;;;;;;;15.17;71.45;101222.47;5031974;28;20021;-49
2022/07/16 04:10:48;;;;;;;19.00;4.40;;;;;;;15.10;71.87;101226.28;5032074;28;20477;-47
2022/07/16 04:13:14;;;;;;;18.17;4.22;;;;;;;15.25;71.23;101234.81;5032608;28;20037;-48
2022/07/16 04:15:41;;;;;;;21.25;5.13;;;;;;;15.04;72.10;101226.13;5033591;28;20547;-48
2022/07/16 04:18:07;;;;;;;18.15;4.38;;;;;;;15.05;72.04;101238.59;5033480;28;20494;-45
2022/07/16 04:20:33;;;;;;;15.02;3.92;;;;;;;15.05;71.95;101224.28;5028884;28;20061;-47
2022/07/16 04:23:00;;;;;;;14.40;4.35;;;;;;;14.95;72.31;101232.91;5030751;28;20100;-45
2022/07/16 04:25:26;;;;;;;19.73;4.25;;;;;;;14.71;73.01;101245.41;5032703;28;20076;-48
2022/07/16 04:27:52;;;;;;;13.23;3.92;;;;;;;14.68;73.02;101245.03;5030401;28;20022;-48
2022/07/16 04:30:19;;;;;;;22.23;4.55;;;;;;;14.72;72.67;101243.53;5031543;28;20039;-46
2022/07/16 04:32:45;;;;;;;12.60;3.45;;;;;;;14.59;73.24;101249.03;5032100;28;20104;-48
2022/07/16 04:35:13;;;;;;;19.13;4.00;;;;;;;14.56;73.53;101241.41;5031741;28;20385;-45
2022/07/16 04:37:40;;;;;;;13.57;4.15;;;;;;;14.47;73.85;101252.47;5031319;28;20021;-46
2022/07/16 04:40:08;;;;;;;20.75;3.83;;;;;;;14.46;74.07;101255.34;5033174;28;20489;-47
2022/07/16 04:42:37;;;;;;;16.58;4.63;;;;;;;14.41;74.57;101265.97;5029645;28;20359;-46
2022/07/16 04:45:04;;;;;;;17.00;4.20;;;;;;;14.25;75.10;101259.25;5033012;28;20032;-49
2022/07/16 04:47:30;;;;;;;22.67;4.78;;;;;;;14.39;74.63;101266.19;5030131;28;20041;-48
2022/07/16 04:49:56;;;;;;;13.02;4.00;;;;;;;14.25;74.99;101265.47;5030982;28;20017;-47
2022/07/16 04:52:22;;;;;;;16.20;4.10;;;;;;;14.13;75.62;101278.00;5033411;28;20022;-47
2022/07/16 04:54:48;;;;;;;16.63;4.85;;;;;;;14.16;75.91;101277.56;5031626;28;20116;-45
2022/07/16 04:57:15;;;;;;;17.20;4.45;;;;;;;14.10;76.25;101273.06;5032425;28;20029;-48
2022/07/16 04:59:41;;;;;;;13.75;4.72;;;;;;;14.09;76.55;101279.47;5030678;28;20036;-47
2022/07/16 05:04:52;;;;;;;14.60;3.50;;;;;;;14.11;76.34;101287.34;5016110;28;20040;-48
2022/07/16 05:07:18;;;;;;;8.05;3.17;;;;;;;14.04;76.54;101295.44;5031176;28;20453;-44
2022/07/16 05:09:44;;;;;;;13.15;3.28;;;;;;;13.93;76.93;101290.75;5032532;28;20123;-47
2022/07/16 05:12:10;;;;;;;9.70;3.70;;;;;;;13.98;76.73;101296.31;5030395;28;20433;-47
2022/07/16 05:14:36;;;;;;;12.98;3.33;;;;;;;14.06;76.68;101297.94;5031223;28;20034;-45
2022/07/16 05:17:03;;;;;;;12.98;3.22;;;;;;;13.93;76.88;101296.13;5028545;28;20755;-46
2022/07/16 05:19:29;;;;;;;8.02;2.47;;;;;;;13.95;77.08;101288.69;5031442;28;20509;-51
2022/07/16 05:21:55;;;;;;;12.43;2.80;;;;;;;13.93;77.27;101298.84;5031940;28;20029;-46
2022/07/16 05:24:21;;;;;;;13.23;3.15;;;;;;;13.93;77.24;101299.66;5032560;28;20473;-47
2022/07/16 05:26:47;;;;;;;6.10;2.13;;;;;;;13.93;76.99;101296.97;5027692;28;20248;-47
2022/07/16 05:29:14;;;;;;;8.68;2.83;;;;;;;13.86;77.27;101301.56;5030421;28;20100;-47
2022/07/16 05:31:40;;;;;;;8.48;2.63;;;;;;;13.89;77.20;101295.78;5032348;28;20053;-48
2022/07/16 05:34:06;;;;;;;8.15;2.75;;;;;;;13.91;77.02;101298.25;5029641;28;20030;-48
2022/07/16 05:36:32;;;;;;;8.82;2.90;;;;;;;13.92;76.88;101297.19;5030365;28;20053;-44
2022/07/16 05:38:59;;;;;;;9.82;2.13;;;;;;;13.85;76.64;101294.53;5030399;28;20792;-48
2022/07/16 05:41:25;;;;;;;6.32;2.20;;;;;;;13.93;76.26;101298.84;5030229;28;20493;-47
2022/07/16 05:43:51;;;;;;;9.10;2.20;;;;;;;13.90;76.37;101291.22;5030585;28;20022;-48
2022/07/16 05:46:17;;;;;;;9.02;2.20;;;;;;;13.88;76.51;101296.81;5015527;28;20099;-48
2022/07/16 05:48:44;;;;;;;7.07;2.67;;;;;;;13.82;76.74;101289.59;5029272;28;20494;-49
2022/07/16 05:51:10;;;;;;;7.25;2.17;;;;;;;13.82;76.87;101286.06;5017003;28;20037;-49
2022/07/16 05:53:39;;;;;;;6.82;2.05;;;;;;;13.73;76.87;101282.81;5012030;28;20145;-48
2022/07/16 05:56:06;;;;;;;8.93;1.98;;;;;;;13.68;76.96;101293.41;5027478;28;20029;-47
2022/07/16 05:58:32;;;;;;;4.22;2.08;;;;;;;13.65;77.29;101286.56;5031579;28;20487;-48
2022/07/16 06:00:58;;;;;;;6.32;1.85;;;;;;;13.71;76.96;101295.66;5030091;28;20135;-48
2022/07/16 06:03:24;;;;;;;6.45;1.85;;;;;;;13.67;77.19;101289.06;5016732;28;20348;-48
2022/07/16 06:05:50;;;;;;;4.07;1.98;;;;;;;13.68;77.11;101301.47;5027071;28;20038;-49
2022/07/16 06:08:16;;;;;;;7.93;2.53;;;;;;;13.72;77.17;101297.31;5031468;28;20029;-48
2022/07/16 06:10:43;;;;;;;6.80;1.92;;;;;;;13.66;77.47;101298.19;5029477;28;20026;-46
2022/07/16 06:13:10;;;;;;;7.57;2.28;;;;;;;13.76;77.16;101287.75;5029892;28;20029;-47
2022/07/16 06:15:36;;;;;;;5.45;1.77;;;;;;;13.68;76.85;101291.53;5029897;28;20021;-47
2022/07/16 06:18:03;;;;;;;7.38;2.20;;;;;;;13.72;77.07;101298.16;5029810;28;20029;-47
2022/07/16 06:20:29;;;;;;;7.95;2.28;;;;;;;13.73;76.85;101299.78;5032536;28;20037;-45
2022/07/16 06:22:56;;;;;;;5.13;1.95;;;;;;;13.69;76.71;101295.06;5033404;28;20037;-45
2022/07/16 06:25:24;;;;;;;8.38;1.73;;;;;;;13.70;76.49;101296.69;5015797;28;20033;-45
2022/07/16 06:27:50;;;;;;;4.43;1.70;;;;;;;13.70;76.96;101304.75;5015954;28;20044;-44
2022/07/16 06:30:17;;;;;;;7.95;2.05;;;;;;;13.76;76.84;101293.13;5032574;28;20385;-45
2022/07/16 06:32:44;;;;;;;10.20;1.73;;;;;;;13.78;76.66;101296.47;5034889;28;20017;-47
2022/07/16 06:35:11;;;;;;;5.75;1.80;;;;;;;13.77;76.54;101302.03;5033612;28;20410;-47
2022/07/16 06:37:38;;;;;;;2.60;1.40;;;;;;;13.85;76.47;101291.84;5033179;28;20041;-48
2022/07/16 06:40:05;;;;;;;5.03;2.08;;;;;;;13.72;76.69;101298.16;5027599;28;20261;-47
2022/07/16 06:42:32;;;;;;;3.00;1.23;;;;;;;13.68;76.77;101301.47;5035421;28;20068;-46
2022/07/16 06:44:59;;;;;;;6.15;1.52;;;;;;;13.64;76.83;101300.25;5033514;28;20056;-46
2022/07/16 06:47:26;;;;;;;4.63;1.42;;;;;;;13.68;76.68;101304.16;5032444;28;20414;-48
2022/07/16 06:49:53;;;;;;;5.72;1.58;;;;;;;13.60;77.08;101299.88;5030861;28;20030;-49
2022/07/16 06:52:19;;;;;;;7.70;2.00;;;;;;;13.61;77.31;101289.94;5032532;28;20026;-44
2022/07/16 06:54:46;;;;;;;4.97;1.70;;;;;;;13.82;76.65;101294.97;5032522;28;20029;-46
2022/07/16 06:57:12;;;;;;;5.45;1.63;;;;;;;13.73;76.91;101293.59;5033140;28;20465;-47
2022/07/16 06:59:38;;;;;;;4.50;1.38;;;;;;;13.74;76.59;101284.47;5016494;28;20068;-46
2022/07/16 07:02:04;;;;;;;8.00;1.80;;;;;;;13.80;76.24;101282.78;5032716;28;20034;-47
2022/07/16 07:04:31;;;;;;;4.07;1.48;;;;;;;13.73;76.74;101286.34;5032424;28;20033;-47
2022/07/16 07:06:57;;;;;;;3.75;1.35;;;;;;;13.63;77.10;101272.53;5032638;28;20060;-48
2022/07/16 07:09:23;;;;;;;5.32;1.50;;;;;;;13.69;77.04;101278.91;5035121;28;20539;-48
2022/07/16 07:11:49;;;;;;;5.25;1.52;;;;;;;13.73;76.99;101283.66;5015891;28;20466;-48
2022/07/16 07:14:15;;;;;;;4.97;1.42;;;;;;;13.71;77.07;101291.13;5033348;28;20041;-45
2022/07/16 07:16:41;;;;;;;4.60;1.55;;;;;;;13.65;77.20;101286.56;5031365;28;20033;-47
2022/07/16 07:19:08;;;;;;;4.47;1.40;;;;;;;13.51;77.97;101289.56;5034558;28;20103;-46
2022/07/16 07:21:34;;;;;;;2.95;1.48;;;;;;;13.68;77.59;101286.16;5032696;28;20079;-48
2022/07/16 07:24:01;;;;;;;5.45;1.40;;;;;;;13.76;77.35;101282.38;5034439;28;20076;-45
2022/07/16 07:26:27;;;;;;;4.38;1.65;;;;;;;13.78;77.37;101274.94;5029588;28;20033;-48
2022/07/16 07:28:53;;;;;;;5.70;1.75;;;;;;;13.89;76.86;101276.94;5032874;28;20033;-48
2022/07/16 07:31:19;;;;;;;2.85;1.48;;;;;;;13.91;76.68;101268.63;5031030;28;20034;-47
2022/07/16 07:33:46;;;;;;;5.28;1.63;;;;;;;13.89;76.42;101266.16;5034138;28;20025;-47
2022/07/16 07:36:12;;;;;;;8.32;2.58;;;;;;;13.94;76.03;101270.91;5033192;28;20116;-49
2022/07/16 07:38:38;;;;;;;4.93;2.13;;;;;;;13.91;75.93;101272.16;5030983;28;20025;-46
2022/07/16 07:41:05;;;;;;;3.45;1.23;;;;;;;14.07;75.58;101278.06;5025953;28;20504;-48
2022/07/16 07:43:32;;;;;;;6.55;1.60;;;;;;;14.04;75.61;101278.47;5034472;28;20029;-50
2022/07/16 07:45:58;;;;;;;4.97;1.58;;;;;;;14.05;75.38;101272.03;5012860;28;20456;-48
2022/07/16 07:48:24;;;;;;;4.28;1.38;;;;;;;13.92;75.80;101271.09;5040029;23;20723;-48
2022/07/16 07:50:51;;;;;;;2.50;1.23;;;;;;;13.90;75.93;101283.13;5032497;28;20049;-47
2022/07/16 07:53:17;;;;;;;2.53;1.20;;;;;;;13.88;75.97;101280.66;5031771;28;20033;-45
2022/07/16 07:55:43;;;;;;;3.15;1.33;;;;;;;13.93;75.74;101286.19;5034050;28;20469;-46
2022/07/16 07:58:09;;;;;;;3.33;1.08;;;;;;;13.86;75.91;101277.34;5031648;28;20045;-48
2022/07/16 08:00:36;;;;;;;6.25;1.23;;;;;;;13.78;75.94;101269.56;5032650;28;20021;-47
2022/07/16 08:03:02;;;;;;;4.25;1.17;;;;;;;13.86;75.51;101271.16;5032228;28;20029;-48
2022/07/16 08:05:28;;;;;;;5.60;1.00;;;;;;;13.83;75.81;101267.03;5033626;28;20043;-47
2022/07/16 08:07:55;;;;;;;4.43;1.20;;;;;;;13.75;75.76;101269.97;5031036;28;20041;-46
2022/07/16 08:10:21;;;;;;;2.70;1.10;;;;;;;13.72;75.67;101276.63;5033742;28;20028;-47
2022/07/16 08:12:48;;;;;;;2.30;0.95;;;;;;;13.66;75.47;101273.97;5031760;28;20466;-48
2022/07/16 08:15:15;;;;;;;2.17;0.80;;;;;;;13.50;76.28;101279.84;5031757;28;20034;-48
2022/07/16 08:17:41;;;;;;;3.30;1.20;;;;;;;13.47;76.98;101273.84;5033312;28;20029;-45
2022/07/16 08:20:09;;;;;;;2.97;1.30;;;;;;;13.47;77.42;101265.78;5029639;28;20036;-46
2022/07/16 08:22:36;;;;;;;5.05;1.50;;;;;;;13.58;77.41;101264.28;5032422;28;20101;-45
2022/07/16 08:27:48;;;;;;;2.75;1.25;;;;;;;13.56;77.70;101257.47;5033708;28;20032;-46
2022/07/16 08:30:14;;;;;;;2.67;1.33;;;;;;;13.51;77.84;101251.91;5031779;28;20490;-48
2022/07/16 08:32:40;;;;;;;5.30;1.40;;;;;;;13.54;77.48;101256.84;5033555;28;20363;-47
2022/07/16 08:35:07;;;;;;;4.22;1.40;;;;;;;13.36;77.89;101261.06;5031267;28;20036;-46
2022/07/16 08:37:35;;;;;;;2.88;0.65;;;;;;;13.32;77.67;101259.03;5029671;28;20445;-46
2022/07/16 08:40:10;;;;;;;4.03;1.23;;;;;;;13.37;77.40;101257.34;5018989;28;20037;-46
2022/07/16 08:42:37;;;;;;;4.75;1.00;;;;;;;13.38;77.58;101267.09;5023702;28;20036;-47
2022/07/16 08:45:06;;;;;;;2.53;1.15;;;;;;;13.20;78.39;101262.34;5031371;28;20556;-44
2022/07/16 08:47:33;;;;;;;3.97;1.35;;;;;;;13.35;78.17;101262.13;5032671;28;20029;-48
2022/07/16 08:50:01;;;;;;;1.40;0.95;;;;;;;13.34;78.34;101267.72;5028692;28;20403;-44
2022/07/16 08:52:29;;;;;;;5.22;1.70;;;;;;;13.29;78.26;101260.28;5032990;28;20030;-48
2022/07/16 08:54:56;;;;;;;3.45;1.25;;;;;;;13.23;78.78;101253.09;5028521;28;20029;-47
2022/07/16 08:57:24;;;;;;;2.83;1.30;;;;;;;13.26;78.89;101260.69;5032259;28;20100;-47
2022/07/16 08:59:53;;;;;;;7.40;2.17;;;;;;;13.33;78.79;101253.47;5031397;28;20501;-48
2022/07/16 09:02:20;;;;;;;5.95;1.60;;;;;;;13.28;78.88;101247.91;5030870;28;20499;-46
2022/07/16 09:04:47;;;;;;;4.05;1.60;;;;;;;13.32;78.99;101251.78;5032608;28;20045;-47
2022/07/16 09:07:17;;;;;;;4.90;1.73;;;;;;;13.30;79.04;101251.19;5030677;28;20036;-46
2022/07/16 09:09:44;;;;;;;4.45;1.58;;;;;;;13.41;78.41;101249.69;5031206;28;20501;-46
2022/07/16 09:12:12;;;;;;;1.92;1.10;;;;;;;13.27;78.51;101246.25;5030397;28;20075;-44
2022/07/16 09:14:39;;;;;;;5.53;1.38;;;;;;;13.31;78.61;101241.25;5030644;28;20029;-48
2022/07/16 09:17:05;;;;;;;3.35;1.30;;;;;;;13.25;78.71;101236.72;5029583;28;20030;-46
2022/07/16 09:19:31;;;;;;;1.80;1.10;;;;;;;13.38;78.27;101240.19;5032287;28;20509;-46
2022/07/16 09:22:16;;;;;;;4.95;1.10;;;;;;;13.25;78.52;101232.19;5031108;28;20108;-47
2022/07/16 09:24:52;;;;;;;4.30;1.17;;;;;;;13.32;78.60;101238.34;5028508;28;20037;-47
2022/07/16 09:27:26;;;;;;;3.65;1.17;;;;;;;13.38;78.44;101240.19;5030409;28;20528;-47
2022/07/16 09:29:53;;;;;;;2.95;1.30;;;;;;;13.35;78.36;101243.31;5032250;28;20028;-44
2022/07/16 09:32:28;;;;;;;3.03;1.40;;;;;;;13.25;79.12;101248.31;5030210;28;20029;-48
2022/07/16 09:35:03;;;;;;;3.05;1.40;;;;;;;13.29;78.94;101254.91;5032224;28;20071;-47
2022/07/16 09:37:57;;;;;;;5.20;1.80;;;;;;;13.33;78.84;101248.09;5029619;28;20037;-45
2022/07/16 09:40:32;;;;;;;3.95;1.60;;;;;;;13.26;79.23;101239.19;5031498;28;20558;-47
2022/07/16 09:43:00;;;;;;;5.65;1.17;;;;;;;13.20;79.59;101237.34;5030634;28;20111;-47
2022/07/16 09:45:27;;;;;;;2.78;1.30;;;;;;;13.30;79.45;101228.84;5029872;28;20109;-48
2022/07/16 09:47:53;;;;;;;3.08;1.58;;;;;;;13.26;79.46;101219.56;5031677;28;20367;-47
2022/07/16 09:50:21;;;;;;;3.90;1.60;;;;;;;13.39;79.14;101217.66;5029601;28;20103;-45
2022/07/16 09:52:47;;;;;;;3.60;1.83;;;;;;;13.37;79.29;101219.69;5027480;28;20042;-48
2022/07/16 09:55:13;;;;;;;4.65;2.00;;;;;;;13.44;78.98;101215.13;5030072;28;20474;-45
2022/07/16 09:57:42;;;;;;;4.70;1.77;;;;;;;13.41;79.27;101218.25;5029597;28;20084;-45
2022/07/16 10:00:09;;;;;;;2.47;1.35;;;;;;;13.33;78.56;101217.69;5031886;28;20040;-46
2022/07/16 10:02:35;;;;;;;2.38;1.08;;;;;;;13.33;79.07;101220.38;5030387;28;20454;-48
2022/07/16 10:05:01;;;;;;;3.28;1.00;;;;;;;13.32;78.95;101216.84;5030701;28;20021;-48
2022/07/16 10:07:27;;;;;;;2.95;1.30;;;;;;;13.34;78.61;101216.63;5031672;28;20025;-47
2022/07/16 10:09:54;;;;;;;3.08;1.00;;;;;;;13.35;78.73;101215.59;5030528;28;20031;-47
2022/07/16 10:12:21;;;;;;;3.03;1.33;;;;;;;13.42;78.70;101211.00;5031814;28;20021;-47
2022/07/16 10:14:54;;;;;;;4.18;1.48;;;;;;;13.38;78.49;101210.63;5029548;28;20029;-48
2022/07/16 10:17:23;;;;;;;2.47;1.00;;;;;;;13.31;78.96;101215.19;5030398;28;20026;-45
2022/07/16 10:20:01;;;;;;;3.25;1.38;;;;;;;13.32;78.85;101211.47;5030672;28;20047;-48
2022/07/16 10:22:33;;;;;;;1.30;0.95;;;;;;;13.34;78.48;101212.09;5030645;28;20025;-47
2022/07/16 10:25:00;;;;;;;1.42;0.95;;;;;;;13.28;78.97;101214.81;5016123;28;20068;-45
2022/07/16 10:27:30;;;;;;;2.58;1.08;;;;;;;13.39;78.02;101206.88;5030395;28;20153;-44
2022/07/16 10:30:29;;;;;;;2.20;0.90;;;;;;;13.25;78.60;101207.16;5031549;28;20041;-49
2022/07/16 10:33:12;;;;;;;1.95;1.10;;;;;;;13.30;78.29;101213.53;5029531;28;20068;-47
2022/07/16 10:35:44;;;;;;;2.15;0.90;;;;;;;13.26;78.23;101212.31;5031546;28;20052;-46
2022/07/16 10:38:11;;;;;;;3.85;1.30;;;;;;;13.21;78.40;101212.13;5026835;28;20092;-45
2022/07/16 10:40:40;;;;;;;3.08;0.88;;;;;;;13.20;78.46;101213.97;5023817;28;20033;-44
2022/07/16 10:43:14;;;;;;;2.88;1.35;;;;;;;13.20;78.46;101208.59;5012323;28;20044;-44
2022/07/16 10:46:04;;;;;;;1.83;0.85;;;;;;;13.15;78.14;101210.28;5037870;23;20049;-47
2022/07/16 10:48:36;;;;;;;1.65;0.85;;;;;;;13.09;78.04;101211.94;5028463;28;20041;-47
2022/07/16 10:51:12;;;;;;;1.85;1.17;;;;;;;12.96;78.33;101217.38;5030256;28;20033;-44
2022/07/16 10:54:03;;;;;;;1.08;0.98;;;;;;;12.93;79.06;101215.94;5031111;28;20041;-47
2022/07/16 10:56:33;;;;;;;1.55;1.00;;;;;;;12.85;79.54;101218.06;5029994;28;20052;-44
2022/07/16 10:58:59;;;;;;;2.55;1.20;;;;;;;12.95;78.78;101216.56;5011493;28;20497;-46
2022/07/16 11:01:25;;;;;;;2.50;1.00;;;;;;;12.87;79.30;101230.22;5024527;28;20052;-44
2022/07/16 11:03:52;;;;;;;1.73;1.00;;;;;;;12.95;79.07;101221.94;5030080;28;20422;-47
2022/07/16 11:06:22;;;;;;;0.95;0.80;;;;;;;12.90;79.01;101213.69;5032535;28;20026;-47
2022/07/16 11:09:00;;;;;;;2.50;0.90;;;;;;;12.86;79.19;101217.81;5033891;28;20083;-47
2022/07/16 11:11:32;;;;;;;2.35;1.23;;;;;;;12.90;78.76;101215.56;5034897;28;20036;-49
2022/07/16 11:13:59;;;;;;;2.03;1.33;;;;;;;12.85;79.07;101221.56;5033418;28;20025;-45
2022/07/16 11:16:26;;;;;;;2.90;1.00;;;;;;;12.82;79.26;101215.78;5033575;28;20116;-47
2022/07/16 11:18:53;;;;;;;1.77;0.95;;;;;;;12.89;78.94;101219.28;5033491;28;20115;-45
2022/07/16 11:21:19;;;;;;;2.65;1.08;;;;;;;12.89;78.66;101219.28;5033522;28;20080;-45
2022/07/16 11:23:48;;;;;;;3.42;1.00;;;;;;;12.87;78.79;101214.09;5016094;28;20448;-44
2022/07/16 11:26:15;;;;;;;2.78;1.27;;;;;;;12.88;78.83;101214.91;5034460;28;20025;-47
2022/07/16 11:29:03;;;;;;;3.20;1.42;;;;;;;12.84;79.33;101209.16;5033474;28;20031;-48
2022/07/16 11:31:30;;;;;;;2.40;1.10;;;;;;;12.80;79.09;101212.47;5033585;28;20045;-46